Time;durP1;ratioP1;P1;durP2;ratioP2;P2;SDS_P1;SDS_P2;PMS_P1;PMS_P2;Temp;Humidity;BMP_temperature;BMP_pressure;BME280_temperature;BME280_humidity;BME280_pressure;Samples;Min_cycle;Max_cycle;Signal;HPM_P1;HPM_P2
2024/01/10 00:02:06;;;;;;;6.60;2.70;;;;;;;-5.60;100.00;101235.96;105007;1254;60524;-58
2024/01/10 00:04:33;;;;;;;6.40;2.30;;;;;;;-5.65;100.00;101233.45;105231;1256;60521;-58
2024/01/10 00:07:01;;;;;;;6.20;2.20;;;;;;;-5.72;100.00;101228.48;105028;1256;74032;-58
2024/01/10 00:09:28;;;;;;;7.70;2.00;;;;;;;-5.77;100.00;101230.52;104873;1254;67775;-57
2024/01/10 00:11:55;;;;;;;9.90;2.30;;;;;;;-5.83;100.00;101216.65;105132;1253;71143;-57
2024/01/10 00:14:23;;;;;;;6.70;2.30;;;;;;;-5.88;100.00;101216.13;104956;1258;60630;-58
2024/01/10 00:16:50;;;;;;;4.70;1.90;;;;;;;-5.92;100.00;101218.61;104979;1254;60521;-58
2024/01/10 00:19:17;;;;;;;4.90;2.20;;;;;;;-5.94;100.00;101211.88;106035;1255;74380;-57
2024/01/10 00:21:45;;;;;;;2.40;1.20;;;;;;;-5.94;100.00;101205.55;104899;1253;67606;-58
2024/01/10 00:24:12;;;;;;;2.50;1.00;;;;;;;-5.92;100.00;101205.64;104742;1253;72674;-58
2024/01/10 00:26:39;;;;;;;3.80;1.40;;;;;;;-5.88;100.00;101201.27;104905;1253;60532;-58
2024/01/10 00:29:07;;;;;;;3.90;1.50;;;;;;;-5.84;100.00;101203.16;104955;1256;60442;-58
2024/01/10 00:31:34;;;;;;;2.20;1.00;;;;;;;-5.79;100.00;101205.11;104928;1252;72683;-59
2024/01/10 00:34:02;;;;;;;2.70;1.20;;;;;;;-5.75;100.00;101203.86;105024;1257;69039;-58
2024/01/10 00:36:29;;;;;;;3.10;1.20;;;;;;;-5.74;100.00;101200.05;104704;1253;71427;-58
2024/01/10 00:38:57;;;;;;;2.90;1.10;;;;;;;-5.74;100.00;101193.41;104886;1255;60541;-57
2024/01/10 00:41:24;;;;;;;2.70;1.20;;;;;;;-5.76;100.00;101192.12;105469;1254;60428;-58
2024/01/10 00:43:51;;;;;;;3.40;1.30;;;;;;;-5.78;100.00;101186.62;105235;1251;73650;-57
2024/01/10 00:46:18;;;;;;;3.60;1.30;;;;;;;-5.81;100.00;101189.48;105055;1251;67196;-56
2024/01/10 00:48:46;;;;;;;3.80;1.70;;;;;;;-5.84;100.00;101183.92;105106;1251;70003;-57
2024/01/10 00:51:13;;;;;;;3.60;1.40;;;;;;;-5.86;100.00;101175.62;105128;1251;61642;-58
2024/01/10 00:53:42;;;;;;;7.10;1.40;;;;;;;-5.84;100.00;101174.46;105165;1251;60352;-57
2024/01/10 00:56:09;;;;;;;3.20;0.90;;;;;;;-5.82;100.00;101166.00;105331;1251;74418;-57
2024/01/10 00:58:37;;;;;;;1.70;1.10;;;;;;;-5.77;100.00;101161.98;105136;1251;69185;-56
2024/01/10 01:01:04;;;;;;;2.50;1.00;;;;;;;-5.73;100.00;101156.23;105635;1251;73205;-54
2024/01/10 01:03:31;;;;;;;2.50;1.50;;;;;;;-5.69;100.00;101151.31;104809;1253;60518;-53
2024/01/10 01:05:59;;;;;;;1.60;0.90;;;;;;;-5.67;100.00;101147.69;105051;1251;60433;-58
2024/01/10 01:08:27;;;;;;;1.80;0.90;;;;;;;-5.67;100.00;101149.98;105219;1251;74468;-57
2024/01/10 01:10:54;;;;;;;2.60;1.10;;;;;;;-5.68;100.00;101142.05;105172;1254;65706;-57
2024/01/10 01:13:21;;;;;;;2.50;1.00;;;;;;;-5.72;100.00;101137.38;105164;1251;71720;-57
2024/01/10 01:15:49;;;;;;;3.90;1.40;;;;;;;-5.75;100.00;101136.56;105194;1257;60426;-57
2024/01/10 01:18:16;;;;;;;2.50;1.30;;;;;;;-5.79;100.00;101136.58;105050;1252;62959;-58
2024/01/10 01:20:44;;;;;;;3.40;1.10;;;;;;;-5.82;100.00;101140.83;105043;1251;72627;-57
2024/01/10 01:23:11;;;;;;;1.50;0.80;;;;;;;-5.84;100.00;101137.96;105175;1256;67357;-56
2024/01/10 01:25:38;;;;;;;3.80;1.00;;;;;;;-5.82;100.00;101136.46;105574;1257;73309;-57
2024/01/10 01:28:06;;;;;;;2.50;0.90;;;;;;;-5.78;100.00;101135.92;105487;1252;60541;-57
2024/01/10 01:30:33;;;;;;;4.40;1.10;;;;;;;-5.72;100.00;101136.48;104933;1251;60549;-56
2024/01/10 01:33:04;;;;;;;2.10;0.90;;;;;;;-5.67;100.00;101133.73;105476;1254;73771;-57
2024/01/10 01:35:32;;;;;;;3.60;1.20;;;;;;;-5.65;100.00;101134.83;105426;1256;68278;-58
2024/01/10 01:37:59;;;;;;;2.00;0.80;;;;;;;-5.66;100.00;101136.19;105163;1256;71409;-57
2024/01/10 01:40:27;;;;;;;2.00;1.00;;;;;;;-5.68;100.00;101122.81;105222;1254;60436;-57
2024/01/10 01:42:54;;;;;;;3.00;1.20;;;;;;;-5.73;100.00;101116.20;105055;1253;60482;-56
2024/01/10 01:45:21;;;;;;;1.70;0.90;;;;;;;-5.75;100.00;101112.95;104992;1254;74065;-57
2024/01/10 01:47:48;;;;;;;2.90;1.00;;;;;;;-5.77;100.00;101107.60;104873;1254;66943;-57
2024/01/10 01:50:16;;;;;;;1.40;0.70;;;;;;;-5.77;100.00;101109.36;104983;1254;71445;-56
2024/01/10 01:52:44;;;;;;;1.30;0.80;;;;;;;-5.75;100.00;101109.14;105272;1254;61298;-57
2024/01/10 01:55:12;;;;;;;2.70;1.10;;;;;;;-5.70;100.00;101105.97;106038;1253;60459;-55
2024/01/10 01:57:39;;;;;;;2.80;1.00;;;;;;;-5.66;100.00;101105.08;105013;1259;73691;-58
2024/01/10 02:00:08;;;;;;;3.20;1.70;;;;;;;-5.61;100.00;101103.00;104868;1257;65817;-57
2024/01/10 02:02:35;;;;;;;2.90;1.20;;;;;;;-5.56;100.00;101110.88;105020;1256;73159;-58
2024/01/10 02:05:03;;;;;;;2.40;1.00;;;;;;;-5.53;100.00;101106.79;105004;1254;60620;-57
2024/01/10 02:07:31;;;;;;;1.50;0.80;;;;;;;-5.55;100.00;101104.98;108079;1253;59957;-59
2024/01/10 02:09:58;;;;;;;2.20;0.90;;;;;;;-5.58;100.00;101104.34;104975;1254;73908;-58
2024/01/10 02:12:26;;;;;;;2.80;1.00;;;;;;;-5.62;100.00;101093.17;104958;1253;67719;-58
2024/01/10 02:14:53;;;;;;;2.50;0.90;;;;;;;-5.64;100.00;101087.48;104952;1254;71463;-57
2024/01/10 02:17:20;;;;;;;2.10;0.90;;;;;;;-5.65;100.00;101086.23;104957;1253;62125;-58
2024/01/10 02:19:48;;;;;;;3.70;0.90;;;;;;;-5.65;100.00;101087.98;105651;1253;60418;-58
2024/01/10 02:22:15;;;;;;;2.60;0.90;;;;;;;-5.64;100.00;101084.17;105049;1254;72613;-58
2024/01/10 02:24:42;;;;;;;1.80;0.80;;;;;;;-5.63;100.00;101067.42;104789;1254;65965;-57
2024/01/10 02:27:10;;;;;;;3.10;0.90;;;;;;;-5.61;100.00;101060.13;105030;1258;69991;-58
2024/01/10 02:29:37;;;;;;;2.70;1.00;;;;;;;-5.60;100.00;101052.86;104920;1254;61155;-56
2024/01/10 02:32:05;;;;;;;2.90;1.00;;;;;;;-5.59;100.00;101051.64;105072;1254;60448;-58
2024/01/10 02:34:32;;;;;;;1.50;0.90;;;;;;;-5.61;100.00;101054.55;105159;1256;74782;-58
2024/01/10 02:37:00;;;;;;;1.50;0.90;;;;;;;-5.63;100.00;101053.23;106687;1256;66686;-58
2024/01/10 02:39:28;;;;;;;3.60;1.80;;;;;;;-5.65;100.00;101051.77;106040;1253;73236;-57
2024/01/10 02:41:55;;;;;;;3.80;1.10;;;;;;;-5.66;100.00;101053.31;105044;1253;61839;-58
2024/01/10 02:44:23;;;;;;;2.00;0.90;;;;;;;-5.66;100.00;101045.26;105123;1255;60445;-58
2024/01/10 02:46:50;;;;;;;2.70;0.70;;;;;;;-5.66;100.00;101039.69;107327;1254;74143;-55
2024/01/10 02:49:18;;;;;;;1.90;0.90;;;;;;;-5.63;100.00;101044.69;105550;1253;65745;-57
2024/01/10 02:51:45;;;;;;;1.60;0.80;;;;;;;-5.59;100.00;101047.80;105039;1253;72739;-55
2024/01/10 02:54:13;;;;;;;3.00;0.90;;;;;;;-5.55;100.00;101047.27;105019;1253;60527;-56
2024/01/10 02:56:40;;;;;;;2.60;1.40;;;;;;;-5.51;100.00;101043.54;104837;1253;60356;-55
2024/01/10 02:59:07;;;;;;;2.20;0.90;;;;;;;-5.50;100.00;101041.66;105163;1257;73904;-55
2024/01/10 03:01:34;;;;;;;5.00;1.40;;;;;;;-5.52;100.00;101037.92;104947;1253;65836;-55
2024/01/10 03:04:02;;;;;;;1.60;0.90;;;;;;;-5.54;100.00;101035.23;104998;1256;71409;-55
2024/01/10 03:06:30;;;;;;;2.00;1.20;;;;;;;-5.56;100.00;101031.84;104983;1253;60992;-55
2024/01/10 03:08:57;;;;;;;2.00;0.80;;;;;;;-5.57;100.00;101029.17;104976;1254;60553;-54
2024/01/10 03:11:24;;;;;;;1.50;0.80;;;;;;;-5.59;100.00;101028.92;104791;1257;72654;-56
2024/01/10 03:14:01;;;;;;;1.60;0.80;;;;;;;-5.59;100.00;101031.19;104829;1258;67041;-54
2024/01/10 03:16:28;;;;;;;4.60;1.10;;;;;;;-5.57;100.00;101034.23;106051;1253;73045;-54
2024/01/10 03:18:55;;;;;;;3.10;0.90;;;;;;;-5.53;100.00;101033.50;104932;1253;60437;-55
2024/01/10 03:21:24;;;;;;;1.40;0.80;;;;;;;-5.48;100.00;101029.52;104702;1253;62007;-55
2024/01/10 03:23:56;;;;;;;2.30;0.90;;;;;;;-5.44;100.00;101023.19;104873;1253;73953;-55
2024/01/10 03:26:23;;;;;;;1.50;0.80;;;;;;;-5.41;100.00;101017.70;104863;1257;66921;-55
2024/01/10 03:28:51;;;;;;;1.80;0.90;;;;;;;-5.39;100.00;101018.63;105307;1253;72102;-56
2024/01/10 03:31:19;;;;;;;3.30;1.10;;;;;;;-5.38;100.00;101020.97;104746;1255;60422;-56
2024/01/10 03:33:46;;;;;;;2.10;0.80;;;;;;;-5.40;100.00;101020.17;104777;1253;62327;-56
2024/01/10 03:36:18;;;;;;;1.30;0.90;;;;;;;-5.43;100.00;101019.01;105844;1255;73877;-56
2024/01/10 03:38:45;;;;;;;2.00;1.00;;;;;;;-5.45;100.00;101014.41;104853;1258;65760;-55
2024/01/10 03:41:16;;;;;;;3.00;1.00;;;;;;;-5.46;100.00;101011.05;104998;1253;72657;-55
2024/01/10 03:43:44;;;;;;;3.30;0.80;;;;;;;-5.44;100.00;101013.73;106341;1256;60947;-53
2024/01/10 03:46:11;;;;;;;2.00;0.70;;;;;;;-5.41;100.00;101015.23;105421;1253;60459;-56
2024/01/10 03:48:47;;;;;;;1.20;0.80;;;;;;;-5.37;100.00;101008.73;105313;1255;75925;-56
2024/01/10 03:51:16;;;;;;;2.10;1.00;;;;;;;-5.34;100.00;101009.18;105190;1254;65628;-53
2024/01/10 03:53:44;;;;;;;3.50;0.80;;;;;;;-5.32;100.00;100996.29;105164;1256;72747;-55
2024/01/10 03:56:12;;;;;;;2.10;1.00;;;;;;;-5.33;100.00;100990.66;105372;1256;61439;-55
2024/01/10 03:58:39;;;;;;;2.70;0.80;;;;;;;-5.35;100.00;100990.77;105551;1255;59119;-55
2024/01/10 04:01:07;;;;;;;2.40;0.90;;;;;;;-5.37;100.00;100996.67;105250;1251;74428;-55
2024/01/10 04:03:35;;;;;;;2.20;0.90;;;;;;;-5.38;100.00;100994.34;105317;1251;65760;-54
2024/01/10 04:06:02;;;;;;;4.10;1.10;;;;;;;-5.39;100.00;100990.48;105236;1254;73387;-56
2024/01/10 04:08:30;;;;;;;2.60;0.60;;;;;;;-5.36;100.00;100991.61;105025;1251;60710;-55
2024/01/10 04:10:58;;;;;;;1.80;0.80;;;;;;;-5.33;100.00;100992.25;105171;1251;60615;-56
2024/01/10 04:13:25;;;;;;;1.90;0.80;;;;;;;-5.29;100.00;100995.91;105489;1256;74069;-55
2024/01/10 04:15:53;;;;;;;8.50;0.80;;;;;;;-5.25;100.00;100990.24;105322;1253;65748;-55
2024/01/10 04:18:21;;;;;;;2.20;0.90;;;;;;;-5.23;100.00;100987.52;104952;1255;70209;-55
2024/01/10 04:20:49;;;;;;;2.20;1.40;;;;;;;-5.22;100.00;100993.66;105350;1252;60678;-55
2024/01/10 04:23:16;;;;;;;2.80;0.90;;;;;;;-5.24;100.00;100994.83;105094;1253;60364;-57
2024/01/10 04:25:44;;;;;;;4.90;1.10;;;;;;;-5.28;100.00;100989.45;105216;1255;73055;-54
2024/01/10 04:28:11;;;;;;;3.10;1.60;;;;;;;-5.29;100.00;100985.90;105243;1256;65797;-56
2024/01/10 04:30:39;;;;;;;2.20;0.80;;;;;;;-5.30;100.00;100985.52;105129;1254;71165;-56
2024/01/10 04:33:06;;;;;;;2.60;0.80;;;;;;;-5.28;100.00;100982.80;105327;1253;60601;-53
2024/01/10 04:35:33;;;;;;;2.30;0.80;;;;;;;-5.24;100.00;100984.48;105144;1251;60482;-55
2024/01/10 04:38:01;;;;;;;2.90;1.00;;;;;;;-5.20;100.00;100984.83;105222;1256;71522;-55
2024/01/10 04:40:28;;;;;;;1.80;1.00;;;;;;;-5.15;100.00;100985.17;105007;1253;66240;-55
2024/01/10 04:42:55;;;;;;;4.90;1.80;;;;;;;-5.13;100.00;100981.42;105029;1257;70464;-56
2024/01/10 04:45:23;;;;;;;2.80;1.40;;;;;;;-5.12;100.00;100984.24;104819;1252;60522;-57
2024/01/10 04:47:50;;;;;;;3.40;0.90;;;;;;;-5.12;100.00;100980.23;105039;1258;60450;-55
2024/01/10 04:50:18;;;;;;;2.30;1.30;;;;;;;-5.13;100.00;100978.59;105698;1253;74333;-55
2024/01/10 04:52:46;;;;;;;1.60;0.90;;;;;;;-5.16;100.00;100973.05;105062;1258;66698;-55
2024/01/10 04:55:13;;;;;;;3.30;0.90;;;;;;;-5.17;100.00;100966.56;104965;1253;72988;-55
2024/01/10 04:57:41;;;;;;;3.60;1.20;;;;;;;-5.15;100.00;100960.14;104933;1256;61779;-55
2024/01/10 05:00:09;;;;;;;3.10;0.90;;;;;;;-5.12;100.00;100961.13;104881;1253;62135;-55
2024/01/10 05:02:36;;;;;;;2.00;0.90;;;;;;;-5.10;100.00;100964.00;105048;1253;74463;-55
2024/01/10 05:05:04;;;;;;;2.00;0.90;;;;;;;-5.08;100.00;100968.08;104953;1255;66071;-56
2024/01/10 05:07:32;;;;;;;1.40;0.80;;;;;;;-5.05;100.00;100963.81;109082;1253;70673;-55
2024/01/10 05:09:59;;;;;;;3.20;1.00;;;;;;;-5.04;100.00;100969.27;105381;1253;60416;-54
2024/01/10 05:12:26;;;;;;;4.30;1.80;;;;;;;-5.04;100.00;100967.53;104938;1257;60485;-56
2024/01/10 05:14:53;;;;;;;3.20;1.00;;;;;;;-5.06;100.00;100969.05;104590;1253;74475;-54
2024/01/10 05:17:21;;;;;;;4.00;0.90;;;;;;;-5.07;100.00;100973.72;104944;1253;67774;-57
2024/01/10 05:19:48;;;;;;;1.60;1.00;;;;;;;-5.06;100.00;100980.43;105876;1257;73132;-54
2024/01/10 05:22:16;;;;;;;2.90;0.90;;;;;;;-5.02;100.00;100976.52;104905;1257;60893;-53
2024/01/10 05:24:44;;;;;;;2.70;0.90;;;;;;;-5.00;100.00;100977.64;104908;1259;60552;-54
2024/01/10 05:27:12;;;;;;;1.20;0.80;;;;;;;-4.92;100.00;100981.40;105024;1253;73415;-53
2024/01/10 05:29:39;;;;;;;2.70;0.90;;;;;;;-4.85;100.00;100990.89;104876;1257;66722;-54
2024/01/10 05:32:06;;;;;;;3.90;0.90;;;;;;;-4.82;100.00;100992.41;104822;1253;72642;-56
2024/01/10 05:34:34;;;;;;;1.70;0.90;;;;;;;-4.77;100.00;100997.48;109010;1252;59227;-55
2024/01/10 05:37:01;;;;;;;3.90;1.10;;;;;;;-4.77;100.00;101005.20;105749;1253;60475;-55
2024/01/10 05:39:28;;;;;;;2.80;1.10;;;;;;;-4.78;100.00;101004.46;104959;1252;74133;-55
2024/01/10 05:41:58;;;;;;;2.40;1.00;;;;;;;-4.82;100.00;101007.65;108140;1251;65514;-54
2024/01/10 05:44:25;;;;;;;2.10;1.00;;;;;;;-4.84;100.00;101018.61;105295;1256;72750;-56
2024/01/10 05:46:53;;;;;;;3.90;1.80;;;;;;;-4.85;100.00;101017.02;105440;1254;60542;-56
2024/01/10 05:49:22;;;;;;;3.90;1.20;;;;;;;-4.82;100.00;101023.92;105338;1251;61371;-55
2024/01/10 05:51:49;;;;;;;3.70;1.70;;;;;;;-4.78;100.00;101027.06;106269;1254;73831;-56
2024/01/10 05:54:18;;;;;;;6.90;1.50;;;;;;;-4.72;100.00;101034.60;105634;1251;65616;-55
2024/01/10 05:56:45;;;;;;;4.30;1.90;;;;;;;-4.68;100.00;101032.29;105153;1256;72661;-56
2024/01/10 05:59:12;;;;;;;5.70;1.40;;;;;;;-4.65;100.00;101034.66;105435;1251;60434;-54
2024/01/10 06:01:40;;;;;;;4.80;2.20;;;;;;;-4.64;100.00;101032.06;105344;1251;60456;-54
2024/01/10 06:04:07;;;;;;;4.00;1.80;;;;;;;-4.67;100.00;101039.16;106224;1256;72313;-56
2024/01/10 06:06:34;;;;;;;4.50;1.40;;;;;;;-4.70;100.00;101037.14;104949;1251;67996;-55
2024/01/10 06:09:02;;;;;;;3.80;2.20;;;;;;;-4.72;100.00;101031.80;106141;1256;70773;-53
2024/01/10 06:11:29;;;;;;;5.30;1.50;;;;;;;-4.70;100.00;101032.56;105196;1256;60539;-56
2024/01/10 06:13:57;;;;;;;6.70;2.00;;;;;;;-4.66;100.00;101033.92;105386;1251;60491;-55
2024/01/10 06:16:25;;;;;;;6.50;1.80;;;;;;;-4.62;100.00;101032.16;105518;1256;71823;-53
2024/01/10 06:18:52;;;;;;;4.30;1.40;;;;;;;-4.58;100.00;101029.98;105461;1251;65830;-54
2024/01/10 06:21:20;;;;;;;5.30;1.70;;;;;;;-4.56;100.00;101030.41;105268;1257;72602;-56
2024/01/10 06:23:47;;;;;;;4.90;1.40;;;;;;;-4.56;100.00;101027.06;106179;1254;60549;-55
2024/01/10 06:26:15;;;;;;;6.00;1.70;;;;;;;-4.59;100.00;101026.29;105271;1251;60435;-54
2024/01/10 06:28:42;;;;;;;4.90;1.60;;;;;;;-4.62;100.00;101031.25;105234;1251;71867;-56
2024/01/10 06:31:09;;;;;;;3.30;1.30;;;;;;;-4.66;100.00;101031.29;105235;1257;66232;-56
2024/01/10 06:33:39;;;;;;;4.70;1.40;;;;;;;-4.69;100.00;101041.39;105458;1254;70574;-53
2024/01/10 06:36:07;;;;;;;2.70;1.60;;;;;;;-4.69;100.00;101043.66;105161;1251;61370;-56
2024/01/10 06:38:34;;;;;;;3.10;1.20;;;;;;;-4.65;100.00;101047.63;105531;1251;60456;-57
2024/01/10 06:41:10;;;;;;;6.50;2.30;;;;;;;-4.64;100.00;101050.98;105102;1257;73089;-56
2024/01/10 06:43:37;;;;;;;3.90;1.80;;;;;;;-4.65;100.00;101049.38;105516;1256;65785;-55
2024/01/10 06:46:05;;;;;;;6.80;2.60;;;;;;;-4.65;100.00;101050.08;105249;1253;71444;-55
2024/01/10 06:48:32;;;;;;;6.10;2.10;;;;;;;-4.68;100.00;101044.38;105232;1252;60865;-56
2024/01/10 06:51:00;;;;;;;5.20;3.20;;;;;;;-4.72;100.00;101051.97;105274;1256;60531;-57
2024/01/10 06:53:27;;;;;;;3.50;1.90;;;;;;;-4.74;100.00;101057.64;104998;1251;75577;-57
2024/01/10 06:55:55;;;;;;;5.60;1.80;;;;;;;-4.77;100.00;101057.05;105992;1254;68434;-55
2024/01/10 06:58:22;;;;;;;7.70;2.50;;;;;;;-4.76;100.00;101061.42;105314;1257;73633;-55
2024/01/10 07:00:50;;;;;;;4.70;1.90;;;;;;;-4.73;100.00;101057.52;105349;1257;60552;-54
2024/01/10 07:03:19;;;;;;;5.10;2.90;;;;;;;-4.69;100.00;101064.65;105385;1254;60533;-54
2024/01/10 07:05:46;;;;;;;5.60;2.50;;;;;;;-4.66;100.00;101067.92;105328;1256;74418;-54
2024/01/10 07:08:14;;;;;;;7.40;2.70;;;;;;;-4.63;100.00;101071.55;104959;1256;67556;-56
2024/01/10 07:10:41;;;;;;;9.90;4.20;;;;;;;-4.63;100.00;101070.48;105377;1257;73831;-56
2024/01/10 07:13:10;;;;;;;8.90;3.10;;;;;;;-4.62;100.00;101075.58;105156;1257;60313;-56
2024/01/10 07:15:38;;;;;;;6.30;3.10;;;;;;;-4.64;100.00;101077.45;105459;1256;60545;-56
2024/01/10 07:18:06;;;;;;;5.60;2.90;;;;;;;-4.67;100.00;101071.21;105186;1258;74713;-56
2024/01/10 07:20:33;;;;;;;5.60;3.20;;;;;;;-4.67;100.00;101074.51;105283;1253;65627;-56
2024/01/10 07:23:01;;;;;;;7.40;3.40;;;;;;;-4.67;100.00;101070.15;105111;1256;70367;-55
2024/01/10 07:25:28;;;;;;;8.00;3.40;;;;;;;-4.63;100.00;101067.85;105267;1257;60910;-56
2024/01/10 07:27:55;;;;;;;8.40;3.80;;;;;;;-4.58;100.00;101062.58;105255;1253;61959;-55
2024/01/10 07:30:23;;;;;;;9.20;4.00;;;;;;;-4.48;100.00;101061.48;105044;1255;75278;-55
2024/01/10 07:32:50;;;;;;;8.40;3.80;;;;;;;-4.42;100.00;101058.73;105017;1257;69663;-56
2024/01/10 07:35:18;;;;;;;10.10;3.80;;;;;;;-4.38;100.00;101061.48;105167;1254;73787;-55
2024/01/10 07:37:45;;;;;;;7.70;4.50;;;;;;;-4.37;100.00;101056.96;105202;1253;60467;-55
2024/01/10 07:40:13;;;;;;;9.80;4.00;;;;;;;-4.36;100.00;101058.58;105005;1254;60453;-55
2024/01/10 07:42:42;;;;;;;6.70;3.70;;;;;;;-4.36;100.00;101054.36;105372;1256;73832;-55
2024/01/10 07:45:09;;;;;;;9.40;3.90;;;;;;;-4.37;100.00;101049.42;105071;1253;64833;-55
2024/01/10 07:47:37;;;;;;;9.30;4.90;;;;;;;-4.39;100.00;101047.95;105125;1256;72635;-55
2024/01/10 07:50:09;;;;;;;5.70;2.70;;;;;;;-4.40;100.00;101051.59;105789;1253;60954;-55
2024/01/10 07:52:37;;;;;;;10.50;3.40;;;;;;;-4.39;100.00;101059.14;106111;1252;60443;-55
2024/01/10 07:55:05;;;;;;;7.30;3.40;;;;;;;-4.37;100.00;101060.27;105564;1254;115333;-55
2024/01/10 07:58:48;;;;;;;6.70;3.00;;;;;;;-4.29;100.00;101109.78;102051;1293;601837;-55
2024/01/10 08:01:17;;;;;;;5.20;2.60;;;;;;;-4.23;100.00;101111.74;104430;1272;59350;-56
2024/01/10 08:03:44;;;;;;;9.70;3.30;;;;;;;-4.16;100.00;101098.46;104619;1266;60145;-55
2024/01/10 08:06:12;;;;;;;7.10;4.00;;;;;;;-4.14;100.00;101093.98;104015;1266;72323;-55
2024/01/10 08:08:53;;;;;;;7.80;3.20;;;;;;;-4.15;100.00;101094.65;105307;1267;65737;-55
2024/01/10 08:11:20;;;;;;;7.10;2.60;;;;;;;-4.15;100.00;101095.69;105269;1269;144620;-56
2024/01/10 08:13:48;;;;;;;7.60;3.40;;;;;;;-4.16;100.00;101098.30;104284;1268;59742;-55
2024/01/10 08:16:17;;;;;;;6.60;3.10;;;;;;;-4.16;100.00;101105.27;104443;1260;59260;-54
2024/01/10 08:18:45;;;;;;;10.30;3.90;;;;;;;-4.16;100.00;101102.48;104576;1265;70617;-55
2024/01/10 08:21:13;;;;;;;7.70;3.60;;;;;;;-4.14;100.00;101103.98;104487;1266;69626;-54
2024/01/10 08:23:40;;;;;;;7.90;2.90;;;;;;;-4.10;100.00;101099.56;104989;1259;72755;-54
2024/01/10 08:26:11;;;;;;;9.40;3.00;;;;;;;-4.06;100.00;101095.98;104741;1257;59779;-55
2024/01/10 08:28:40;;;;;;;7.10;3.90;;;;;;;-4.03;100.00;101092.24;108854;1258;60114;-55
2024/01/10 08:31:08;;;;;;;6.20;2.80;;;;;;;-4.01;100.00;101092.49;108958;1257;73508;-56
2024/01/10 08:33:35;;;;;;;9.50;3.60;;;;;;;-3.98;100.00;101090.13;109028;1257;65979;-56
2024/01/10 08:36:03;;;;;;;11.00;5.00;;;;;;;-3.96;100.00;101086.66;108490;1260;73592;-54
2024/01/10 08:38:30;;;;;;;12.60;4.10;;;;;;;-3.97;100.00;101089.10;104809;1262;59343;-56
2024/01/10 08:40:58;;;;;;;10.40;4.10;;;;;;;-3.98;100.00;101100.98;107408;1263;59216;-55
2024/01/10 08:43:26;;;;;;;5.30;2.70;;;;;;;-3.98;100.00;101102.02;104591;1262;72155;-55
2024/01/10 08:45:53;;;;;;;8.80;2.70;;;;;;;-3.98;100.00;101105.89;104818;1260;67907;-54
2024/01/10 08:48:20;;;;;;;6.80;3.20;;;;;;;-3.93;100.00;101104.48;104885;1260;72696;-56
2024/01/10 08:50:48;;;;;;;7.70;3.40;;;;;;;-3.87;100.00;101100.96;106069;1255;59757;-55
2024/01/10 08:53:16;;;;;;;7.40;3.50;;;;;;;-3.82;100.00;101103.95;104710;1261;60271;-56
2024/01/10 08:55:47;;;;;;;10.60;3.60;;;;;;;-3.78;100.00;101109.84;104664;1257;74404;-54
2024/01/10 08:58:14;;;;;;;7.10;3.60;;;;;;;-3.75;100.00;101111.71;104837;1266;68848;-55
2024/01/10 09:00:42;;;;;;;9.20;4.10;;;;;;;-3.74;100.00;101105.77;104906;1261;71429;-56
2024/01/10 09:03:09;;;;;;;6.90;4.30;;;;;;;-3.73;100.00;101109.64;108864;1260;61092;-56
2024/01/10 09:05:37;;;;;;;11.50;5.00;;;;;;;-3.75;100.00;101103.96;107739;1261;60000;-54
2024/01/10 09:08:05;;;;;;;11.10;4.90;;;;;;;-3.79;100.00;101103.33;104902;1262;71859;-55
2024/01/10 09:10:32;;;;;;;8.70;4.60;;;;;;;-3.82;100.00;101095.52;106838;1261;65513;-56
2024/01/10 09:12:59;;;;;;;9.20;4.40;;;;;;;-3.82;100.00;101092.88;104677;1270;74101;-55
2024/01/10 09:15:27;;;;;;;11.60;5.20;;;;;;;-3.79;100.00;101088.41;104582;1259;61319;-54
2024/01/10 09:17:54;;;;;;;13.50;6.00;;;;;;;-3.75;100.00;101087.14;106907;1260;61077;-54
2024/01/10 09:20:22;;;;;;;13.90;5.30;;;;;;;-3.70;100.00;101080.45;104812;1255;73114;-54
2024/01/10 09:22:49;;;;;;;12.00;6.20;;;;;;;-3.65;100.00;101080.25;104882;1260;67201;-55
2024/01/10 09:25:17;;;;;;;11.40;5.50;;;;;;;-3.59;100.00;101083.93;104851;1260;72576;-55
2024/01/10 09:27:45;;;;;;;10.50;5.60;;;;;;;-3.56;100.00;101079.45;105121;1262;60051;-55
2024/01/10 09:30:13;;;;;;;11.50;5.70;;;;;;;-3.55;100.00;101075.29;105315;1262;59749;-56
2024/01/10 09:32:40;;;;;;;14.80;6.90;;;;;;;-3.55;100.00;101075.10;104982;1264;72992;-55
2024/01/10 09:35:08;;;;;;;10.70;5.90;;;;;;;-3.57;100.00;101068.91;104878;1257;65871;-55
2024/01/10 09:37:36;;;;;;;14.10;5.50;;;;;;;-3.60;100.00;101062.70;104966;1260;71400;-54
2024/01/10 09:40:04;;;;;;;10.50;4.70;;;;;;;-3.60;100.00;101059.35;104775;1260;61672;-55
2024/01/10 09:42:33;;;;;;;8.30;4.30;;;;;;;-3.59;100.00;101059.23;105473;1260;60020;-55
2024/01/10 09:45:03;;;;;;;8.50;4.70;;;;;;;-3.55;100.00;101059.48;104991;1257;74030;-55
2024/01/10 09:47:32;;;;;;;8.90;4.60;;;;;;;-3.51;100.00;101062.26;104925;1256;65790;-54
2024/01/10 09:50:02;;;;;;;12.30;5.30;;;;;;;-3.45;100.00;101058.21;104665;1260;72784;-54
2024/01/10 09:52:29;;;;;;;11.50;5.00;;;;;;;-3.40;100.00;101061.86;104436;1261;59657;-56
2024/01/10 09:54:57;;;;;;;12.90;6.20;;;;;;;-3.37;100.00;101061.06;104407;1261;62386;-55
2024/01/10 09:57:25;;;;;;;14.90;6.10;;;;;;;-3.35;100.00;101061.14;104905;1261;71867;-55
2024/01/10 09:59:54;;;;;;;8.30;5.00;;;;;;;-3.35;100.00;101062.36;104952;1260;67659;-55
2024/01/10 10:02:23;;;;;;;17.90;6.60;;;;;;;-3.35;100.00;101060.95;105426;1260;71265;-55
2024/01/10 10:05:02;;;;;;;12.80;4.80;;;;;;;-3.37;100.00;101059.48;105235;1258;59678;-55
2024/01/10 10:07:30;;;;;;;12.30;5.30;;;;;;;-3.38;100.00;101060.14;104574;1258;62243;-55
2024/01/10 10:09:57;;;;;;;7.10;3.60;;;;;;;-3.41;100.00;101056.04;104816;1256;71930;-55
2024/01/10 10:12:53;;;;;;;9.70;4.30;;;;;;;-3.41;100.00;101059.92;104994;1260;65512;-54
2024/01/10 10:15:27;;;;;;;10.60;5.30;;;;;;;-3.35;100.00;101056.02;104885;1258;73100;-55
2024/01/10 10:17:54;;;;;;;9.40;4.30;;;;;;;-3.29;100.00;101056.18;105089;1260;59631;-55
2024/01/10 10:20:24;;;;;;;11.40;4.40;;;;;;;-3.25;100.00;101055.80;105018;1259;59563;-55
2024/01/10 10:23:02;;;;;;;11.90;5.60;;;;;;;-3.22;100.00;101060.42;105197;1258;75809;-55
2024/01/10 10:25:34;;;;;;;11.90;5.10;;;;;;;-3.22;100.00;101062.88;105075;1254;65789;-57
2024/01/10 10:28:03;;;;;;;16.50;6.40;;;;;;;-3.23;100.00;101064.97;105249;1257;71464;-55
2024/01/10 10:30:31;;;;;;;7.90;4.20;;;;;;;-3.27;100.00;101066.10;105015;1260;62931;-54
2024/01/10 10:32:58;;;;;;;8.60;5.30;;;;;;;-3.29;100.00;101060.77;105313;1254;59796;-56
2024/01/10 10:35:26;;;;;;;10.60;4.10;;;;;;;-3.30;100.00;101057.38;104932;1260;71880;-57
2024/01/10 10:38:08;;;;;;;8.80;4.70;;;;;;;-3.28;100.00;101058.85;104969;1254;66275;-55
2024/01/10 10:40:36;;;;;;;13.10;5.90;;;;;;;-3.26;100.00;101056.98;105348;1258;73165;-55
2024/01/10 10:43:03;;;;;;;11.50;5.30;;;;;;;-3.23;100.00;101059.52;104976;1253;59849;-57
2024/01/10 10:45:31;;;;;;;9.80;5.50;;;;;;;-3.22;100.00;101056.93;105027;1267;60052;-56
2024/01/10 10:47:59;;;;;;;12.30;5.80;;;;;;;-3.21;100.00;101052.91;104767;1260;73566;-56
2024/01/10 10:50:29;;;;;;;14.40;7.60;;;;;;;-3.23;100.00;101049.34;105490;1254;66331;-56
2024/01/10 10:52:56;;;;;;;13.20;5.90;;;;;;;-3.26;100.00;101047.69;106028;1260;72710;-55
2024/01/10 10:55:24;;;;;;;14.30;6.40;;;;;;;-3.27;100.00;101041.16;105076;1260;60760;-54
2024/01/10 10:57:51;;;;;;;11.20;5.60;;;;;;;-3.27;100.00;101043.44;104936;1255;60974;-54
2024/01/10 11:00:31;;;;;;;12.20;6.00;;;;;;;-3.26;100.00;101048.05;104992;1254;75129;-55
2024/01/10 11:02:58;;;;;;;10.10;5.60;;;;;;;-3.21;100.00;101051.16;104934;1254;67000;-54
2024/01/10 11:05:26;;;;;;;11.90;5.70;;;;;;;-3.15;100.00;101054.14;104733;1260;73179;-56
2024/01/10 11:07:53;;;;;;;12.70;6.50;;;;;;;-3.09;100.00;101055.52;105763;1254;59538;-55
2024/01/10 11:10:26;;;;;;;11.60;6.90;;;;;;;-3.06;100.00;101062.11;104772;1256;59749;-57
2024/01/10 11:13:09;;;;;;;13.00;7.50;;;;;;;-3.05;100.00;101067.91;104943;1254;73029;-56